Time;durP1;ratioP1;P1;durP2;ratioP2;P2;SDS_P1;SDS_P2;PMS_P1;PMS_P2;Temp;Humidity;BMP_temperature;BMP_pressure;BME280_temperature;BME280_humidity;BME280_pressure;Samples;Min_cycle;Max_cycle;Signal;HPM_P1;HPM_P2
2022/10/30 00:00:10;;;;;;;4.00;1.57;;;;;;;;;;5019768;28;92065;-48
2022/10/30 00:02:38;;;;;;;3.17;1.57;;;;;;;;;;5021068;28;93595;-48
2022/10/30 00:05:08;;;;;;;3.63;1.50;;;;;;;;;;5040060;28;93152;-54
2022/10/30 00:07:36;;;;;;;2.37;1.10;;;;;;;;;;5039669;28;92823;-54
2022/10/30 00:10:05;;;;;;;4.93;1.73;;;;;;;;;;5040906;28;92018;-53
2022/10/30 00:12:33;;;;;;;2.33;1.17;;;;;;;;;;5019464;28;91286;-52
2022/10/30 00:15:01;;;;;;;4.83;1.47;;;;;;;;;;5020501;28;94208;-54
2022/10/30 00:17:30;;;;;;;2.23;1.30;;;;;;;;;;5018546;28;92925;-55
2022/10/30 00:19:58;;;;;;;2.30;1.47;;;;;;;;;;5015298;28;93078;-54
2022/10/30 00:22:28;;;;;;;1.40;1.30;;;;;;;;;;5038488;28;91839;-54
2022/10/30 00:24:56;;;;;;;2.00;1.43;;;;;;;;;;5035187;28;93568;-55
2022/10/30 00:27:24;;;;;;;1.70;1.17;;;;;;;;;;5037689;28;92551;-54
2022/10/30 00:29:52;;;;;;;3.97;1.30;;;;;;;;;;5039982;28;91895;-51
2022/10/30 00:32:21;;;;;;;2.80;1.57;;;;;;;;;;5038745;28;92025;-55
2022/10/30 00:34:49;;;;;;;1.43;1.33;;;;;;;;;;5021546;28;92131;-54
2022/10/30 00:37:17;;;;;;;2.17;1.27;;;;;;;;;;5035175;28;92817;-54
2022/10/30 00:39:47;;;;;;;4.40;1.60;;;;;;;;;;5016983;28;92078;-54
2022/10/30 00:42:15;;;;;;;2.97;1.77;;;;;;;;;;5019180;28;92094;-55
2022/10/30 00:44:45;;;;;;;2.53;1.33;;;;;;;;;;5018910;28;94139;-54
2022/10/30 00:47:16;;;;;;;1.27;1.13;;;;;;;;;;5012629;28;93599;-55
2022/10/30 00:49:48;;;;;;;1.63;1.43;;;;;;;;;;5030827;28;92102;-54
2022/10/30 00:52:16;;;;;;;1.53;1.30;;;;;;;;;;4992121;28;92016;-55
2022/10/30 00:54:44;;;;;;;1.60;1.07;;;;;;;;;;5014741;28;92064;-54
2022/10/30 00:57:14;;;;;;;2.07;1.10;;;;;;;;;;5014840;28;92841;-54
2022/10/30 00:59:42;;;;;;;1.63;1.10;;;;;;;;;;5019457;28;93417;-54
2022/10/30 01:02:10;;;;;;;1.63;1.23;;;;;;;;;;5019793;28;91378;-53
2022/10/30 01:04:39;;;;;;;1.40;1.30;;;;;;;;;;5019639;28;93041;-54
2022/10/30 01:07:08;;;;;;;2.57;1.53;;;;;;;;;;5018067;28;92818;-54
2022/10/30 01:09:36;;;;;;;1.20;1.10;;;;;;;;;;5018743;28;93088;-53
2022/10/30 01:12:04;;;;;;;2.83;1.20;;;;;;;;;;5018925;28;91975;-54
2022/10/30 01:14:34;;;;;;;2.53;1.30;;;;;;;;;;5018984;28;93285;-55
2022/10/30 01:17:07;;;;;;;1.73;1.10;;;;;;;;;;5014722;28;92704;-54
2022/10/30 01:19:37;;;;;;;1.20;1.10;;;;;;;;;;4998879;28;91964;-54
2022/10/30 01:22:15;;;;;;;2.93;1.00;;;;;;;;;;5018204;28;91959;-53
2022/10/30 01:24:46;;;;;;;1.57;1.47;;;;;;;;;;5000545;28;93261;-53
2022/10/30 01:27:18;;;;;;;3.13;1.50;;;;;;;;;;5024972;28;92869;-54
2022/10/30 01:29:51;;;;;;;2.40;1.50;;;;;;;;;;5023819;28;92030;-54
2022/10/30 01:32:22;;;;;;;1.57;1.30;;;;;;;;;;5014902;28;92051;-54
2022/10/30 01:34:52;;;;;;;1.57;1.40;;;;;;;;;;5016360;28;95004;-54
2022/10/30 01:37:21;;;;;;;1.43;1.10;;;;;;;;;;4998315;28;94719;-54
2022/10/30 01:39:49;;;;;;;7.70;1.30;;;;;;;;;;5004315;28;91887;-54
2022/10/30 01:42:36;;;;;;;1.73;1.30;;;;;;;;;;5011368;28;92084;-53
2022/10/30 01:45:06;;;;;;;1.43;1.33;;;;;;;;;;5015492;28;93305;-53
2022/10/30 01:47:35;;;;;;;1.40;1.17;;;;;;;;;;4998354;28;92403;-54
2022/10/30 01:50:11;;;;;;;2.03;1.30;;;;;;;;;;5017094;28;93047;-54
2022/10/30 01:52:41;;;;;;;1.90;1.30;;;;;;;;;;5018701;28;91337;-54
2022/10/30 01:55:13;;;;;;;1.80;1.20;;;;;;;;;;5017447;28;94350;-53
2022/10/30 01:57:42;;;;;;;2.77;1.90;;;;;;;;;;5018184;28;94016;-53
2022/10/30 02:00:12;;;;;;;2.50;1.40;;;;;;;;;;5017312;28;93099;-54
2022/10/30 02:02:40;;;;;;;1.10;0.93;;;;;;;;;;5018574;28;92039;-54
2022/10/30 02:05:09;;;;;;;1.43;1.20;;;;;;;;;;5018010;28;93128;-53
2022/10/30 02:07:37;;;;;;;1.07;1.00;;;;;;;;;;5018055;28;92956;-54
2022/10/30 02:10:06;;;;;;;1.30;0.90;;;;;;;;;;5018240;28;93707;-54
2022/10/30 02:12:34;;;;;;;3.17;1.40;;;;;;;;;;5018745;28;92079;-54
2022/10/30 02:15:02;;;;;;;6.70;1.00;;;;;;;;;;5018234;28;93978;-54
2022/10/30 02:17:33;;;;;;;2.07;1.60;;;;;;;;;;5006813;28;92927;-55
2022/10/30 02:20:01;;;;;;;1.10;1.00;;;;;;;;;;5018567;28;92817;-54
2022/10/30 02:22:31;;;;;;;2.60;1.80;;;;;;;;;;5018119;28;92138;-54
2022/10/30 02:24:59;;;;;;;1.17;1.03;;;;;;;;;;5005528;28;94053;-54
2022/10/30 02:27:27;;;;;;;3.07;1.67;;;;;;;;;;5015964;28;93829;-54
2022/10/30 02:29:56;;;;;;;1.67;1.07;;;;;;;;;;5018210;28;92105;-54
2022/10/30 02:32:24;;;;;;;1.63;1.37;;;;;;;;;;5017724;28;92131;-54
2022/10/30 02:34:53;;;;;;;1.47;1.33;;;;;;;;;;5018188;28;94141;-54
2022/10/30 02:37:22;;;;;;;1.57;1.20;;;;;;;;;;5019328;28;92530;-55
2022/10/30 02:39:51;;;;;;;2.00;1.20;;;;;;;;;;5038915;28;91812;-54
2022/10/30 02:42:22;;;;;;;2.60;1.10;;;;;;;;;;5042295;28;91329;-54
2022/10/30 02:44:50;;;;;;;1.00;1.00;;;;;;;;;;5031374;28;93144;-54
2022/10/30 02:47:18;;;;;;;1.27;0.90;;;;;;;;;;5021189;28;92088;-54
2022/10/30 02:49:46;;;;;;;2.47;1.10;;;;;;;;;;5016515;28;93150;-54
2022/10/30 02:52:15;;;;;;;3.30;1.23;;;;;;;;;;5005812;28;92077;-54
2022/10/30 02:54:43;;;;;;;1.67;0.97;;;;;;;;;;5010176;28;93989;-54
2022/10/30 02:57:12;;;;;;;2.20;1.83;;;;;;;;;;5006678;28;92845;-54
2022/10/30 02:59:41;;;;;;;3.43;1.40;;;;;;;;;;5011492;28;94367;-54
2022/10/30 03:02:09;;;;;;;2.63;0.90;;;;;;;;;;5031832;28;92056;-54
2022/10/30 03:04:37;;;;;;;0.97;0.93;;;;;;;;;;5041348;28;92895;-54
2022/10/30 03:07:06;;;;;;;1.70;1.30;;;;;;;;;;5041203;28;93768;-54
2022/10/30 03:09:34;;;;;;;2.30;1.07;;;;;;;;;;5041457;28;92076;-54
2022/10/30 03:12:02;;;;;;;1.93;1.03;;;;;;;;;;5018995;28;92087;-54
2022/10/30 03:14:32;;;;;;;3.73;1.30;;;;;;;;;;5004379;28;93050;-53
2022/10/30 03:17:00;;;;;;;1.13;0.97;;;;;;;;;;4982680;28;93858;-53
2022/10/30 03:19:28;;;;;;;1.87;1.53;;;;;;;;;;5000937;28;92109;-53
2022/10/30 03:21:57;;;;;;;1.10;1.00;;;;;;;;;;5013381;28;92070;-53
2022/10/30 03:24:25;;;;;;;1.60;1.40;;;;;;;;;;5020947;28;93139;-53
2022/10/30 03:26:53;;;;;;;2.20;1.10;;;;;;;;;;5020588;28;93631;-54
2022/10/30 03:29:21;;;;;;;1.00;0.90;;;;;;;;;;5020507;28;92110;-53
2022/10/30 03:31:51;;;;;;;2.73;0.80;;;;;;;;;;5029613;28;91399;-53
2022/10/30 03:34:19;;;;;;;1.43;1.10;;;;;;;;;;5032939;28;92170;-54
2022/10/30 03:36:48;;;;;;;1.57;1.10;;;;;;;;;;5028159;28;93953;-53
2022/10/30 03:39:16;;;;;;;2.67;1.27;;;;;;;;;;5019035;28;93120;-54
2022/10/30 03:41:44;;;;;;;2.77;1.30;;;;;;;;;;5026786;28;92127;-54
2022/10/30 03:44:13;;;;;;;1.57;1.10;;;;;;;;;;5035586;28;94144;-54
2022/10/30 03:46:41;;;;;;;1.47;1.07;;;;;;;;;;5019375;28;92816;-54
2022/10/30 03:49:10;;;;;;;2.50;1.13;;;;;;;;;;5020311;28;91966;-55
2022/10/30 03:51:39;;;;;;;1.23;1.10;;;;;;;;;;5018862;28;92110;-54
2022/10/30 03:54:07;;;;;;;4.10;1.03;;;;;;;;;;5019976;28;93120;-54
2022/10/30 03:56:35;;;;;;;1.70;1.40;;;;;;;;;;5020823;28;92628;-55
2022/10/30 03:59:04;;;;;;;1.17;1.07;;;;;;;;;;5020454;28;92041;-54
2022/10/30 04:01:32;;;;;;;0.97;0.90;;;;;;;;;;5019454;28;92052;-55
2022/10/30 04:04:00;;;;;;;4.00;1.50;;;;;;;;;;5019889;28;94133;-54
2022/10/30 04:06:30;;;;;;;1.00;1.00;;;;;;;;;;5015347;28;93716;-53
2022/10/30 04:08:58;;;;;;;4.13;1.07;;;;;;;;;;5001019;28;92119;-54
2022/10/30 04:11:26;;;;;;;1.13;0.80;;;;;;;;;;5017638;28;92362;-54
2022/10/30 04:13:55;;;;;;;2.40;1.10;;;;;;;;;;5020346;28;93321;-54
2022/10/30 04:16:23;;;;;;;2.60;1.23;;;;;;;;;;5014511;28;92923;-56
2022/10/30 04:18:51;;;;;;;1.80;1.23;;;;;;;;;;5041028;28;92087;-54
2022/10/30 04:21:20;;;;;;;1.43;1.20;;;;;;;;;;5022458;28;91341;-54
2022/10/30 04:23:49;;;;;;;1.10;1.00;;;;;;;;;;4999179;28;93216;-53
2022/10/30 04:26:17;;;;;;;1.57;1.27;;;;;;;;;;5011539;28;92860;-54
2022/10/30 04:28:48;;;;;;;1.00;0.90;;;;;;;;;;4998630;28;93094;-53
2022/10/30 04:31:16;;;;;;;2.27;1.30;;;;;;;;;;5009058;28;92073;-54
2022/10/30 04:33:44;;;;;;;0.77;0.73;;;;;;;;;;5012683;28;93105;-54
2022/10/30 04:36:12;;;;;;;3.57;1.10;;;;;;;;;;5002830;28;92720;-53
2022/10/30 04:38:41;;;;;;;1.63;1.40;;;;;;;;;;4998891;28;92129;-52
2022/10/30 04:41:10;;;;;;;1.40;1.30;;;;;;;;;;5001552;28;93917;-54
2022/10/30 04:43:38;;;;;;;3.20;1.53;;;;;;;;;;5005459;28;93132;-54
2022/10/30 04:46:07;;;;;;;1.40;1.17;;;;;;;;;;5003626;28;93428;-56
2022/10/30 04:48:36;;;;;;;27.93;2.00;;;;;;;;;;5017519;28;92549;-54
2022/10/30 04:51:04;;;;;;;1.23;1.10;;;;;;;;;;5021561;28;92112;-57
2022/10/30 04:53:32;;;;;;;1.77;1.67;;;;;;;;;;5002325;28;95230;-53
2022/10/30 04:56:01;;;;;;;1.57;1.27;;;;;;;;;;4998382;28;94367;-57
2022/10/30 04:58:30;;;;;;;1.30;1.20;;;;;;;;;;4995099;28;91995;-54
2022/10/30 05:01:01;;;;;;;2.27;1.17;;;;;;;;;;5003760;28;92434;-53
2022/10/30 05:03:30;;;;;;;1.13;1.10;;;;;;;;;;5013302;28;94151;-53
2022/10/30 05:05:59;;;;;;;2.00;1.67;;;;;;;;;;5012304;28;92867;-54
2022/10/30 05:08:28;;;;;;;1.43;1.33;;;;;;;;;;5004161;28;92237;-54
2022/10/30 05:10:56;;;;;;;4.60;1.60;;;;;;;;;;5014512;28;91334;-53
2022/10/30 05:13:24;;;;;;;1.67;1.30;;;;;;;;;;5001479;28;94284;-51
2022/10/30 05:15:55;;;;;;;2.80;0.80;;;;;;;;;;5015773;28;93651;-51
2022/10/30 05:18:23;;;;;;;1.67;1.10;;;;;;;;;;5003549;28;93006;-51
2022/10/30 05:20:52;;;;;;;1.93;1.70;;;;;;;;;;5018149;28;92077;-51
2022/10/30 05:23:20;;;;;;;1.43;1.33;;;;;;;;;;5017063;28;94088;-51
2022/10/30 05:25:48;;;;;;;1.67;1.37;;;;;;;;;;5018899;28;93977;-51
2022/10/30 05:28:16;;;;;;;1.87;1.30;;;;;;;;;;5008147;28;92032;-52
2022/10/30 05:30:45;;;;;;;1.67;1.10;;;;;;;;;;5014890;28;93830;-52
2022/10/30 05:33:16;;;;;;;3.20;1.27;;;;;;;;;;4998729;28;92078;-51
2022/10/30 05:35:45;;;;;;;1.90;1.13;;;;;;;;;;5015167;28;92733;-52
2022/10/30 05:38:13;;;;;;;1.63;1.37;;;;;;;;;;5009120;28;92104;-51
2022/10/30 05:40:41;;;;;;;1.20;1.10;;;;;;;;;;5003221;28;92146;-51
2022/10/30 05:43:09;;;;;;;1.33;1.23;;;;;;;;;;5001514;28;94965;-51
2022/10/30 05:45:38;;;;;;;1.00;0.90;;;;;;;;;;5018889;28;94913;-51
2022/10/30 05:48:06;;;;;;;1.80;1.07;;;;;;;;;;5012282;28;93766;-51
2022/10/30 05:50:36;;;;;;;1.07;0.93;;;;;;;;;;5007752;28;92006;-51
2022/10/30 05:53:04;;;;;;;2.87;1.60;;;;;;;;;;5006304;28;94194;-52
2022/10/30 05:55:33;;;;;;;0.80;0.80;;;;;;;;;;5012147;28;93737;-52
2022/10/30 05:58:01;;;;;;;1.50;1.40;;;;;;;;;;5018408;28;92087;-52
2022/10/30 06:00:30;;;;;;;1.20;1.00;;;;;;;;;;5018870;28;91297;-51
2022/10/30 06:03:01;;;;;;;3.77;1.33;;;;;;;;;;5018664;28;94223;-51
2022/10/30 06:05:31;;;;;;;3.10;1.40;;;;;;;;;;5018052;28;93689;-52
2022/10/30 06:08:00;;;;;;;1.30;1.20;;;;;;;;;;5018637;28;92824;-51
2022/10/30 06:10:29;;;;;;;1.50;1.40;;;;;;;;;;5016714;28;92239;-52
2022/10/30 06:12:57;;;;;;;1.87;1.40;;;;;;;;;;5021360;28;94219;-52
2022/10/30 06:15:26;;;;;;;4.03;1.00;;;;;;;;;;5020709;28;93987;-52
2022/10/30 06:17:54;;;;;;;4.10;1.47;;;;;;;;;;5006988;28;93658;-51
2022/10/30 06:20:23;;;;;;;1.13;0.80;;;;;;;;;;5022166;28;92075;-52
2022/10/30 06:22:54;;;;;;;1.00;0.90;;;;;;;;;;5021802;28;94252;-51
2022/10/30 06:25:24;;;;;;;2.57;1.90;;;;;;;;;;5021850;28;92838;-51
2022/10/30 06:27:52;;;;;;;1.23;1.00;;;;;;;;;;5021795;28;92107;-52
2022/10/30 06:30:21;;;;;;;1.97;1.30;;;;;;;;;;5021969;28;92154;-51
2022/10/30 06:32:49;;;;;;;1.87;1.03;;;;;;;;;;5020079;28;95229;-51
2022/10/30 06:35:18;;;;;;;1.43;1.20;;;;;;;;;;5020857;28;94927;-51
2022/10/30 06:37:46;;;;;;;1.47;0.97;;;;;;;;;;5012389;28;92139;-52
2022/10/30 06:40:15;;;;;;;1.90;1.20;;;;;;;;;;5013920;28;92238;-51
2022/10/30 06:42:45;;;;;;;1.83;1.47;;;;;;;;;;5001520;28;94151;-51
2022/10/30 06:45:13;;;;;;;3.03;0.97;;;;;;;;;;5016257;28;93846;-52
2022/10/30 06:47:42;;;;;;;1.70;1.53;;;;;;;;;;5009744;28;93531;-51
2022/10/30 06:50:10;;;;;;;2.17;0.90;;;;;;;;;;5011203;28;91414;-51
2022/10/30 06:52:39;;;;;;;3.30;1.33;;;;;;;;;;5001704;28;92973;-52
2022/10/30 06:55:07;;;;;;;1.03;0.93;;;;;;;;;;5017215;28;93846;-51
2022/10/30 06:57:36;;;;;;;1.07;1.07;;;;;;;;;;5020807;28;93050;-51
2022/10/30 07:00:06;;;;;;;3.23;1.30;;;;;;;;;;5021846;28;91917;-52
2022/10/30 07:02:34;;;;;;;2.47;1.40;;;;;;;;;;5023830;28;93073;-51
2022/10/30 07:05:03;;;;;;;0.83;0.83;;;;;;;;;;5032243;28;93963;-52
2022/10/30 07:07:31;;;;;;;1.30;1.20;;;;;;;;;;5042078;28;91952;-51
2022/10/30 07:09:59;;;;;;;0.87;0.83;;;;;;;;;;5023056;28;91969;-51
2022/10/30 07:12:28;;;;;;;1.67;1.03;;;;;;;;;;5017584;28;92763;-51
2022/10/30 07:14:56;;;;;;;1.40;1.13;;;;;;;;;;5018243;28;93844;-51
2022/10/30 07:17:26;;;;;;;1.97;1.10;;;;;;;;;;5021445;28;92100;-51
2022/10/30 07:19:54;;;;;;;3.43;1.00;;;;;;;;;;5025601;28;92078;-51
2022/10/30 07:22:22;;;;;;;1.13;1.07;;;;;;;;;;5020192;28;95012;-52
2022/10/30 07:24:51;;;;;;;2.10;1.37;;;;;;;;;;5017199;28;93784;-51
2022/10/30 07:27:19;;;;;;;1.13;1.00;;;;;;;;;;5001284;28;91825;-51
2022/10/30 07:29:47;;;;;;;1.17;1.00;;;;;;;;;;5019785;28;92113;-52
2022/10/30 07:32:15;;;;;;;2.13;1.30;;;;;;;;;;5013037;28;93181;-51
2022/10/30 07:34:45;;;;;;;1.60;1.50;;;;;;;;;;5000310;28;92970;-52
2022/10/30 07:37:13;;;;;;;1.73;0.90;;;;;;;;;;5015411;28;91999;-51
2022/10/30 07:39:42;;;;;;;2.73;1.33;;;;;;;;;;5019628;28;91531;-51
2022/10/30 07:42:10;;;;;;;2.00;1.00;;;;;;;;;;5020074;28;94131;-51
2022/10/30 07:44:38;;;;;;;1.30;1.20;;;;;;;;;;5020739;28;93843;-51
2022/10/30 07:47:07;;;;;;;2.03;1.23;;;;;;;;;;5019276;28;93004;-51
2022/10/30 07:49:35;;;;;;;0.87;0.87;;;;;;;;;;5027497;28;92046;-51
2022/10/30 07:52:05;;;;;;;2.50;1.00;;;;;;;;;;5015501;28;92015;-51
2022/10/30 07:54:33;;;;;;;2.30;1.60;;;;;;;;;;5009338;28;92900;-51
2022/10/30 07:57:02;;;;;;;1.33;1.13;;;;;;;;;;5020966;28;92020;-51
2022/10/30 07:59:30;;;;;;;1.37;1.20;;;;;;;;;;5020458;28;92205;-51
2022/10/30 08:01:59;;;;;;;2.40;1.60;;;;;;;;;;5011041;28;94198;-51
2022/10/30 08:04:28;;;;;;;1.40;1.00;;;;;;;;;;5008156;28;92722;-51
2022/10/30 08:06:56;;;;;;;1.10;1.00;;;;;;;;;;5003719;28;92177;-52
2022/10/30 08:09:26;;;;;;;4.13;1.53;;;;;;;;;;5017276;28;92121;-51
2022/10/30 08:11:54;;;;;;;1.80;1.23;;;;;;;;;;5009739;28;95174;-52
2022/10/30 08:14:22;;;;;;;4.13;1.03;;;;;;;;;;5008379;28;94363;-52
2022/10/30 08:16:51;;;;;;;1.20;1.10;;;;;;;;;;5000064;28;91983;-52
2022/10/30 08:19:19;;;;;;;1.57;1.30;;;;;;;;;;5017711;28;92108;-52
2022/10/30 08:21:47;;;;;;;2.67;1.00;;;;;;;;;;5015757;28;93207;-52
2022/10/30 08:24:16;;;;;;;1.10;1.10;;;;;;;;;;4998918;28;93929;-52
2022/10/30 08:26:45;;;;;;;1.53;1.20;;;;;;;;;;5000206;28;92130;-53
2022/10/30 08:29:14;;;;;;;3.13;1.20;;;;;;;;;;5007597;28;91254;-53
2022/10/30 08:31:42;;;;;;;2.17;1.27;;;;;;;;;;5018161;28;94220;-54
2022/10/30 08:34:10;;;;;;;3.50;1.10;;;;;;;;;;5013772;28;92824;-54
2022/10/30 08:36:38;;;;;;;3.90;1.40;;;;;;;;;;5017206;28;93008;-54
2022/10/30 08:39:12;;;;;;;4.40;1.43;;;;;;;;;;5018802;28;92186;-54
2022/10/30 08:41:40;;;;;;;1.37;1.27;;;;;;;;;;5018664;28;92088;-54
2022/10/30 08:44:10;;;;;;;4.80;1.40;;;;;;;;;;5017428;28;94016;-53
2022/10/30 08:46:38;;;;;;;2.93;1.33;;;;;;;;;;5018292;28;92058;-54
2022/10/30 08:49:07;;;;;;;2.63;1.47;;;;;;;;;;5017862;28;92136;-54
2022/10/30 08:51:35;;;;;;;2.00;1.30;;;;;;;;;;5015869;28;94167;-54
2022/10/30 08:54:03;;;;;;;3.73;1.67;;;;;;;;;;5019568;28;93829;-54
2022/10/30 08:56:32;;;;;;;3.57;1.67;;;;;;;;;;5018571;28;92224;-53
2022/10/30 08:59:00;;;;;;;2.80;1.13;;;;;;;;;;5027300;28;92043;-54
2022/10/30 09:01:30;;;;;;;6.77;1.57;;;;;;;;;;5015423;28;95079;-53
2022/10/30 09:03:58;;;;;;;1.13;0.93;;;;;;;;;;5007512;28;94781;-54
2022/10/30 09:06:27;;;;;;;7.27;1.70;;;;;;;;;;5018446;28;92260;-54
2022/10/30 09:08:55;;;;;;;5.40;1.73;;;;;;;;;;5018582;28;92023;-54
2022/10/30 09:11:23;;;;;;;2.17;1.37;;;;;;;;;;5018713;28;94141;-53
2022/10/30 09:13:52;;;;;;;3.53;1.47;;;;;;;;;;5017069;28;92841;-53
2022/10/30 09:16:20;;;;;;;4.70;2.00;;;;;;;;;;5018413;28;92019;-53
2022/10/30 09:18:49;;;;;;;2.93;1.90;;;;;;;;;;5017897;28;91327;-54
2022/10/30 09:21:18;;;;;;;1.57;1.40;;;;;;;;;;5018044;28;92804;-54
2022/10/30 09:23:46;;;;;;;1.30;1.17;;;;;;;;;;5016213;28;93802;-54
2022/10/30 09:26:14;;;;;;;2.13;1.50;;;;;;;;;;5016365;28;93431;-54
2022/10/30 09:28:47;;;;;;;2.27;1.67;;;;;;;;;;5016356;28;91919;-54
2022/10/30 09:31:16;;;;;;;1.80;1.57;;;;;;;;;;5014622;28;93154;-55
2022/10/30 09:33:44;;;;;;;3.97;1.70;;;;;;;;;;5016090;28;92764;-54
2022/10/30 09:36:14;;;;;;;2.47;1.90;;;;;;;;;;5016666;28;92149;-54
2022/10/30 09:38:48;;;;;;;2.47;1.40;;;;;;;;;;5018631;28;92103;-53
2022/10/30 09:41:21;;;;;;;4.23;2.17;;;;;;;;;;5011708;28;94084;-54
2022/10/30 09:43:53;;;;;;;2.93;1.83;;;;;;;;;;5019280;28;92387;-54
2022/10/30 09:46:24;;;;;;;6.20;1.70;;;;;;;;;;5016376;28;92176;-53
2022/10/30 09:49:00;;;;;;;2.87;1.37;;;;;;;;;;5017221;28;92015;-53
2022/10/30 09:51:37;;;;;;;2.93;1.67;;;;;;;;;;5030627;28;95024;-53
2022/10/30 09:54:07;;;;;;;3.37;1.30;;;;;;;;;;5037443;28;93607;-54
2022/10/30 09:56:37;;;;;;;4.40;1.63;;;;;;;;;;5021938;28;92051;-54
2022/10/30 09:59:08;;;;;;;1.93;1.40;;;;;;;;;;5018908;28;92049;-54
2022/10/30 10:01:38;;;;;;;2.63;2.20;;;;;;;;;;5018724;28;93114;-54
2022/10/30 10:04:08;;;;;;;6.17;2.07;;;;;;;;;;5019315;28;92702;-54
2022/10/30 10:06:38;;;;;;;4.73;2.30;;;;;;;;;;5018359;28;92030;-54
2022/10/30 10:09:07;;;;;;;3.60;2.07;;;;;;;;;;5015119;28;92765;-54
2022/10/30 10:11:36;;;;;;;2.00;1.77;;;;;;;;;;5016825;28;94015;-54
2022/10/30 10:14:07;;;;;;;3.43;2.43;;;;;;;;;;5012812;28;93100;-54
2022/10/30 10:16:35;;;;;;;2.20;1.60;;;;;;;;;;5004585;28;92984;-54
2022/10/30 10:19:06;;;;;;;2.97;1.87;;;;;;;;;;5016525;28;92145;-54
2022/10/30 10:21:35;;;;;;;4.70;2.10;;;;;;;;;;5002997;28;94308;-54
2022/10/30 10:24:10;;;;;;;5.40;2.13;;;;;;;;;;5013636;28;92809;-55
2022/10/30 10:26:44;;;;;;;3.63;2.17;;;;;;;;;;5010786;28;92117;-54
2022/10/30 10:29:25;;;;;;;4.53;2.67;;;;;;;;;;5018478;28;92156;-54
2022/10/30 10:31:57;;;;;;;4.30;2.47;;;;;;;;;;5018207;28;92214;-54
2022/10/30 10:34:29;;;;;;;3.27;2.17;;;;;;;;;;5018028;28;92977;-54
2022/10/30 10:36:58;;;;;;;4.00;2.23;;;;;;;;;;5018484;28;91968;-54
2022/10/30 10:39:31;;;;;;;3.43;2.43;;;;;;;;;;5018099;28;92135;-55
2022/10/30 10:42:03;;;;;;;3.00;2.07;;;;;;;;;;5012541;28;93891;-54
2022/10/30 10:44:35;;;;;;;3.53;2.67;;;;;;;;;;5016310;28;94130;-54
2022/10/30 10:47:07;;;;;;;4.73;2.50;;;;;;;;;;5011773;28;92116;-54
2022/10/30 10:49:44;;;;;;;4.30;2.60;;;;;;;;;;5014941;28;93120;-54
2022/10/30 10:52:12;;;;;;;4.30;2.50;;;;;;;;;;5014842;28;93136;-54
2022/10/30 10:54:42;;;;;;;3.03;1.60;;;;;;;;;;5017409;28;93897;-53
2022/10/30 10:57:13;;;;;;;4.00;2.23;;;;;;;;;;5017804;28;91751;-53
2022/10/30 10:59:42;;;;;;;7.70;2.93;;;;;;;;;;5022125;28;91415;-53
2022/10/30 11:02:16;;;;;;;4.70;2.67;;;;;;;;;;5021045;28;94226;-54
2022/10/30 11:04:46;;;;;;;2.60;1.97;;;;;;;;;;5020238;28;92744;-53
2022/10/30 11:07:16;;;;;;;2.50;2.00;;;;;;;;;;5019391;28;93104;-52
2022/10/30 11:09:46;;;;;;;4.03;2.77;;;;;;;;;;5020098;28;92019;-53
2022/10/30 11:12:15;;;;;;;15.47;2.70;;;;;;;;;;5017237;28;93294;-54
2022/10/30 11:14:43;;;;;;;6.87;2.50;;;;;;;;;;5021062;28;92842;-53
2022/10/30 11:17:13;;;;;;;8.57;3.27;;;;;;;;;;5020762;28;92117;-54
2022/10/30 11:19:42;;;;;;;3.37;2.27;;;;;;;;;;5021159;28;92001;-53
2022/10/30 11:22:17;;;;;;;7.53;2.40;;;;;;;;;;5014551;28;94408;-56
2022/10/30 11:24:47;;;;;;;3.70;2.33;;;;;;;;;;5006059;28;93919;-55
2022/10/30 11:27:19;;;;;;;4.07;2.60;;;;;;;;;;5021433;28;92048;-52
2022/10/30 11:29:48;;;;;;;6.50;2.73;;;;;;;;;;5019219;28;92228;-53
2022/10/30 11:32:20;;;;;;;5.17;2.37;;;;;;;;;;5020262;28;95030;-53
2022/10/30 11:34:48;;;;;;;4.30;2.10;;;;;;;;;;5020600;28;94858;-53
2022/10/30 11:37:30;;;;;;;4.53;2.33;;;;;;;;;;5020552;28;91849;-53
2022/10/30 11:40:07;;;;;;;4.67;2.47;;;;;;;;;;5020952;28;92518;-53
2022/10/30 11:42:35;;;;;;;10.33;1.93;;;;;;;;;;5020078;28;93287;-54
2022/10/30 11:45:03;;;;;;;5.70;2.30;;;;;;;;;;5020760;28;92006;-53
2022/10/30 11:47:33;;;;;;;4.07;1.97;;;;;;;;;;5021464;28;92016;-53
2022/10/30 11:50:02;;;;;;;2.80;1.70;;;;;;;;;;5021286;28;91231;-54
2022/10/30 11:52:31;;;;;;;4.80;3.03;;;;;;;;;;5020629;28;94371;-54
2022/10/30 11:55:00;;;;;;;5.00;2.40;;;;;;;;;;5020900;28;93681;-53
2022/10/30 11:57:31;;;;;;;5.70;2.30;;;;;;;;;;5019759;28;93148;-53
2022/10/30 12:00:00;;;;;;;5.10;2.73;;;;;;;;;;5020947;28;92029;-54
2022/10/30 12:02:32;;;;;;;6.43;2.23;;;;;;;;;;5020636;28;93284;-53
2022/10/30 12:05:01;;;;;;;3.43;2.30;;;;;;;;;;5020305;28;92743;-54
2022/10/30 12:07:30;;;;;;;3.17;2.30;;;;;;;;;;5021022;28;92104;-53
2022/10/30 12:10:00;;;;;;;5.53;2.20;;;;;;;;;;5020128;28;92050;-54
2022/10/30 12:12:31;;;;;;;3.17;2.13;;;;;;;;;;5020131;28;94375;-54
2022/10/30 12:15:08;;;;;;;4.60;2.23;;;;;;;;;;5020016;28;92808;-53
2022/10/30 12:17:36;;;;;;;3.80;1.53;;;;;;;;;;5020529;28;92041;-53
2022/10/30 12:20:05;;;;;;;3.77;1.80;;;;;;;;;;5020311;28;91909;-54
2022/10/30 12:22:33;;;;;;;5.87;2.27;;;;;;;;;;5019159;28;94117;-53
2022/10/30 12:25:03;;;;;;;3.50;2.33;;;;;;;;;;5019297;28;93551;-53
2022/10/30 12:27:35;;;;;;;4.53;2.17;;;;;;;;;;5020148;28;92144;-54
2022/10/30 12:30:05;;;;;;;2.70;2.20;;;;;;;;;;5020542;28;91950;-55
2022/10/30 12:32:42;;;;;;;3.90;2.60;;;;;;;;;;5020140;28;93149;-55
2022/10/30 12:35:16;;;;;;;3.27;1.90;;;;;;;;;;5019818;28;93979;-55
2022/10/30 12:37:44;;;;;;;1.40;1.30;;;;;;;;;;5020425;28;92054;-53
2022/10/30 12:40:13;;;;;;;3.67;1.80;;;;;;;;;;5020223;28;91308;-54
2022/10/30 12:42:43;;;;;;;2.13;1.90;;;;;;;;;;4999305;28;94735;-55
2022/10/30 12:45:13;;;;;;;2.57;1.90;;;;;;;;;;4999916;28;93815;-54
2022/10/30 12:47:42;;;;;;;4.07;1.90;;;;;;;;;;4999806;28;92958;-54
2022/10/30 12:50:14;;;;;;;2.23;1.97;;;;;;;;;;4998933;28;92172;-54
2022/10/30 12:52:46;;;;;;;2.77;1.97;;;;;;;;;;4999737;28;93077;-54
2022/10/30 12:55:15;;;;;;;4.23;2.60;;;;;;;;;;4999513;28;92099;-54
2022/10/30 12:57:46;;;;;;;4.00;1.90;;;;;;;;;;4999919;28;92034;-53
2022/10/30 13:00:15;;;;;;;6.20;2.10;;;;;;;;;;4999972;28;92077;-54
2022/10/30 13:02:46;;;;;;;5.83;1.70;;;;;;;;;;4999657;28;93109;-53
2022/10/30 13:05:18;;;;;;;2.03;1.77;;;;;;;;;;4999563;28;93880;-53
2022/10/30 13:07:48;;;;;;;2.93;2.00;;;;;;;;;;4999515;28;92168;-53
2022/10/30 13:10:20;;;;;;;2.73;1.97;;;;;;;;;;4999942;28;91927;-53
2022/10/30 13:12:51;;;;;;;2.70;2.00;;;;;;;;;;4998044;28;94218;-55
2022/10/30 13:15:21;;;;;;;5.10;1.87;;;;;;;;;;4999705;28;94361;-60
2022/10/30 13:17:50;;;;;;;3.07;2.00;;;;;;;;;;5000101;28;92116;-56
2022/10/30 13:20:18;;;;;;;2.57;1.40;;;;;;;;;;4999147;28;92030;-59
2022/10/30 13:22:48;;;;;;;2.60;2.03;;;;;;;;;;4997071;28;93047;-60
2022/10/30 13:25:17;;;;;;;2.17;1.50;;;;;;;;;;4997779;28;92829;-54
2022/10/30 13:27:46;;;;;;;2.63;1.90;;;;;;;;;;5017150;28;92051;-54
2022/10/30 13:30:16;;;;;;;1.30;1.20;;;;;;;;;;5020072;28;91280;-53
2022/10/30 13:32:47;;;;;;;2.63;1.80;;;;;;;;;;5005561;28;94186;-52
2022/10/30 13:35:19;;;;;;;1.03;1.00;;;;;;;;;;4998349;28;92837;-53
2022/10/30 13:37:48;;;;;;;3.90;1.43;;;;;;;;;;4998095;28;93032;-55
2022/10/30 13:40:18;;;;;;;3.37;1.60;;;;;;;;;;4997338;28;91965;-52
2022/10/30 13:42:57;;;;;;;10.63;1.87;;;;;;;;;;5018594;28;94087;-53
2022/10/30 13:45:48;;;;;;;2.20;1.57;;;;;;;;;;5015526;28;92747;-53
2022/10/30 13:48:18;;;;;;;2.07;1.87;;;;;;;;;;4991425;28;92075;-53
2022/10/30 13:50:50;;;;;;;1.53;1.33;;;;;;;;;;4999165;28;92050;-52
2022/10/30 13:53:19;;;;;;;2.40;1.40;;;;;;;;;;4998739;28;93462;-52
2022/10/30 13:55:48;;;;;;;32.50;13.60;;;;;;;;;;4998800;28;92558;-52
2022/10/30 13:58:17;;;;;;;32.17;13.00;;;;;;;;;;5018400;28;92000;-53
2022/10/30 14:00:51;;;;;;;42.67;15.63;;;;;;;;;;5006175;28;92020;-53
2022/10/30 14:03:23;;;;;;;72.50;18.23;;;;;;;;;;4997352;28;94100;-54
2022/10/30 14:05:53;;;;;;;41.17;14.83;;;;;;;;;;4997499;28;94931;-52
2022/10/30 14:08:24;;;;;;;58.53;16.07;;;;;;;;;;4998617;28;92105;-51
2022/10/30 14:10:53;;;;;;;337.67;130.50;;;;;;;;;;5006191;28;92101;-51
2022/10/30 14:13:27;;;;;;;612.93;254.17;;;;;;;;;;4997507;28;93105;-51
2022/10/30 14:15:58;;;;;;;332.47;132.67;;;;;;;;;;4997284;28;93323;-51
2022/10/30 14:18:31;;;;;;;402.20;142.80;;;;;;;;;;4997600;28;92099;-53
2022/10/30 14:20:59;;;;;;;365.33;129.93;;;;;;;;;;5017623;28;91254;-52
2022/10/30 14:23:29;;;;;;;299.83;111.53;;;;;;;;;;5002776;28;94253;-52
2022/10/30 14:26:13;;;;;;;298.80;104.60;;;;;;;;;;4994568;28;95931;-53
2022/10/30 14:28:42;;;;;;;219.80;79.73;;;;;;;;;;5000660;28;93017;-51
2022/10/30 14:31:12;;;;;;;165.63;62.23;;;;;;;;;;5009906;28;92081;-51
2022/10/30 14:33:45;;;;;;;132.53;56.07;;;;;;;;;;5004384;28;93974;-51
2022/10/30 14:36:14;;;;;;;117.53;48.40;;;;;;;;;;4998892;28;93724;-51
2022/10/30 14:38:42;;;;;;;105.53;43.60;;;;;;;;;;4988437;28;92024;-50
2022/10/30 14:41:16;;;;;;;79.63;33.17;;;;;;;;;;4998860;28;92012;-52
2022/10/30 14:43:45;;;;;;;84.10;30.70;;;;;;;;;;5006613;28;94141;-51
2022/10/30 14:46:17;;;;;;;52.27;24.57;;;;;;;;;;5008598;28;92680;-52
2022/10/30 14:48:45;;;;;;;51.40;22.03;;;;;;;;;;5015915;28;92131;-51
2022/10/30 14:51:15;;;;;;;45.80;19.30;;;;;;;;;;4999450;28;92162;-51
2022/10/30 14:53:48;;;;;;;41.57;18.37;;;;;;;;;;5015414;28;94694;-52